Time;durP1;ratioP1;P1;durP2;ratioP2;P2;SDS_P1;SDS_P2;PMS_P1;PMS_P2;Temp;Humidity;BMP_temperature;BMP_pressure;BME280_temperature;BME280_humidity;BME280_pressure;Samples;Min_cycle;Max_cycle;Signal;HPM_P1;HPM_P2
2023/09/15 00:01:46;;;;;;;14.07;3.00;;;;;;;14.33;100.00;100632.88;5041671;28;20225;-78
2023/09/15 00:04:13;;;;;;;17.02;3.67;;;;;;;14.30;100.00;100647.94;5026062;28;20246;-78
2023/09/15 00:06:40;;;;;;;19.30;4.20;;;;;;;14.28;100.00;100653.25;5032206;28;20245;-78
2023/09/15 00:09:14;;;;;;;16.00;3.40;;;;;;;14.28;100.00;100661.22;5024679;28;20234;-78
2023/09/15 00:11:42;;;;;;;16.42;4.53;;;;;;;14.21;100.00;100654.16;5035928;28;20297;-79
2023/09/15 00:14:13;;;;;;;19.25;4.20;;;;;;;14.15;100.00;100659.50;5032835;28;20241;-79
2023/09/15 00:16:41;;;;;;;19.95;4.22;;;;;;;14.16;100.00;100661.25;5037191;28;20234;-78
2023/09/15 00:19:14;;;;;;;20.50;4.53;;;;;;;14.14;100.00;100667.47;5032014;28;20329;-78
2023/09/15 00:21:47;;;;;;;27.65;5.88;;;;;;;14.10;100.00;100669.25;5036122;28;20230;-78
2023/09/15 00:24:14;;;;;;;17.33;3.75;;;;;;;14.10;100.00;100672.78;5038850;28;20299;-78
2023/09/15 00:26:43;;;;;;;20.70;4.45;;;;;;;14.13;100.00;100682.53;5038011;28;20244;-78
2023/09/15 00:29:11;;;;;;;18.17;3.97;;;;;;;14.07;100.00;100680.78;5031883;28;20808;-78
2023/09/15 00:31:39;;;;;;;13.02;2.97;;;;;;;14.07;100.00;100682.56;5022465;28;20235;-78
2023/09/15 00:34:06;;;;;;;25.08;6.15;;;;;;;14.09;100.00;100684.31;5031865;28;21374;-78
2023/09/15 00:36:33;;;;;;;19.92;4.30;;;;;;;14.10;100.00;100680.78;5038420;28;20345;-79
2023/09/15 00:39:01;;;;;;;35.45;8.68;;;;;;;13.99;100.00;100676.34;5030697;28;20241;-79
2023/09/15 00:41:28;;;;;;;21.55;4.60;;;;;;;14.03;100.00;100681.66;5020020;28;20675;-78
2023/09/15 00:43:55;;;;;;;30.13;7.90;;;;;;;13.97;100.00;100679.03;5013395;28;20237;-79
2023/09/15 00:46:23;;;;;;;24.10;5.18;;;;;;;13.93;100.00;100679.91;5026696;28;20253;-80
2023/09/15 00:48:51;;;;;;;24.92;5.72;;;;;;;13.95;100.00;100679.91;5023229;28;20317;-79
2023/09/15 00:51:21;;;;;;;17.35;3.70;;;;;;;14.02;100.00;100698.50;5013510;28;20237;-78
2023/09/15 00:53:47;;;;;;;22.08;5.13;;;;;;;14.10;100.00;100693.19;5019314;28;20234;-80
2023/09/15 00:56:14;;;;;;;18.33;3.80;;;;;;;14.02;100.00;100694.97;5018797;28;20234;-78
2023/09/15 00:58:41;;;;;;;16.55;3.63;;;;;;;13.96;100.00;100681.69;5024209;28;20317;-78
2023/09/15 01:01:08;;;;;;;18.67;3.80;;;;;;;13.96;100.00;100681.69;5010542;28;20332;-79
2023/09/15 01:03:40;;;;;;;36.28;7.32;;;;;;;13.91;100.00;100680.81;5007010;28;20578;-78
2023/09/15 01:06:09;;;;;;;17.05;3.50;;;;;;;13.93;100.00;100689.66;5031285;28;20242;-78
2023/09/15 01:08:35;;;;;;;20.77;4.32;;;;;;;13.94;100.00;100684.34;5045071;28;20242;-80
2023/09/15 01:11:04;;;;;;;31.13;8.02;;;;;;;13.95;100.00;100693.19;5040030;28;20238;-78
2023/09/15 01:13:33;;;;;;;21.25;4.38;;;;;;;13.90;100.00;100697.63;5045391;28;20261;-78
2023/09/15 01:16:23;;;;;;;29.20;7.70;;;;;;;13.93;100.00;100708.28;5031535;28;20288;-78
2023/09/15 01:18:59;;;;;;;25.00;5.70;;;;;;;13.93;100.00;100705.63;5024653;28;20233;-78
2023/09/15 01:21:36;;;;;;;20.60;4.25;;;;;;;13.83;100.00;100688.78;5030512;28;20230;-78
2023/09/15 01:24:25;;;;;;;35.35;8.82;;;;;;;13.82;100.00;100689.66;5038500;28;20232;-78
2023/09/15 01:27:01;;;;;;;23.92;5.40;;;;;;;13.80;100.00;100691.44;5021628;28;20237;-78
2023/09/15 01:29:39;;;;;;;19.35;4.00;;;;;;;13.67;100.00;100677.25;5025860;28;20229;-77
2023/09/15 01:32:08;;;;;;;28.95;6.57;;;;;;;13.73;100.00;100698.53;5032958;28;20272;-78
2023/09/15 01:34:36;;;;;;;17.95;3.97;;;;;;;13.61;100.00;100697.63;5039080;28;20746;-78
2023/09/15 01:37:03;;;;;;;35.58;8.60;;;;;;;13.66;100.00;100695.84;5032117;28;20684;-78
2023/09/15 01:39:30;;;;;;;23.83;5.18;;;;;;;13.65;100.00;100702.94;5037103;28;20234;-78
2023/09/15 01:42:00;;;;;;;38.10;8.85;;;;;;;13.58;100.00;100695.84;5029856;28;20633;-78
2023/09/15 01:44:27;;;;;;;23.15;5.10;;;;;;;13.53;100.00;100710.91;5027813;28;20241;-78
2023/09/15 01:46:54;;;;;;;31.80;8.00;;;;;;;13.53;100.00;100707.38;5034529;28;20234;-78
2023/09/15 01:49:22;;;;;;;17.30;3.58;;;;;;;13.49;100.00;100709.13;5043307;28;20237;-78
2023/09/15 01:51:49;;;;;;;16.92;3.85;;;;;;;13.52;100.00;100716.22;5025842;28;20223;-79
2023/09/15 01:54:16;;;;;;;17.65;3.80;;;;;;;13.51;100.00;100710.03;5041249;28;20689;-79
2023/09/15 01:56:43;;;;;;;17.92;3.67;;;;;;;13.49;100.00;100716.22;5029872;28;20254;-78
2023/09/15 01:59:09;;;;;;;21.40;5.32;;;;;;;13.50;100.00;100715.34;5040189;28;20238;-78
2023/09/15 02:01:36;;;;;;;13.10;2.83;;;;;;;13.49;100.00;100721.53;5027980;28;20247;-78
2023/09/15 02:04:04;;;;;;;34.58;8.60;;;;;;;13.47;100.00;100725.94;5019546;28;20242;-78
2023/09/15 02:06:31;;;;;;;19.75;4.03;;;;;;;13.46;100.00;100719.75;5035003;28;20235;-79
2023/09/15 02:08:58;;;;;;;34.25;8.48;;;;;;;13.44;100.00;100726.84;5018492;28;20239;-78
2023/09/15 02:11:25;;;;;;;20.15;4.18;;;;;;;13.39;100.00;100723.28;5027463;28;20226;-79
2023/09/15 02:13:51;;;;;;;23.50;5.32;;;;;;;13.37;100.00;100741.00;5039224;28;20245;-79
2023/09/15 02:16:18;;;;;;;19.70;4.38;;;;;;;13.38;100.00;100748.97;5050640;28;20700;-79
2023/09/15 02:18:47;;;;;;;17.85;3.83;;;;;;;13.36;100.00;100752.50;5039925;28;20780;-79
2023/09/15 02:21:14;;;;;;;21.27;4.03;;;;;;;13.38;100.00;100753.38;5006796;28;20234;-79
2023/09/15 02:23:40;;;;;;;12.70;2.78;;;;;;;13.33;100.00;100755.16;5044351;28;20230;-78
2023/09/15 02:26:08;;;;;;;15.50;3.17;;;;;;;13.25;100.00;100757.78;5018742;28;20246;-79
2023/09/15 02:28:35;;;;;;;18.83;3.92;;;;;;;13.25;100.00;100754.22;5027437;28;20412;-80
2023/09/15 02:31:03;;;;;;;35.80;8.77;;;;;;;13.26;100.00;100759.56;5029659;28;20233;-79
2023/09/15 02:33:31;;;;;;;17.55;4.03;;;;;;;13.27;100.00;100757.78;5039363;28;20235;-79
2023/09/15 02:35:58;;;;;;;34.88;8.27;;;;;;;13.22;100.00;100759.53;5019948;28;20318;-79
2023/09/15 02:38:25;;;;;;;15.75;3.65;;;;;;;13.15;100.00;100750.63;5049641;28;20234;-79
2023/09/15 02:40:52;;;;;;;22.35;5.70;;;;;;;13.07;100.00;100753.25;5025474;28;20308;-79
2023/09/15 02:43:18;;;;;;;19.95;4.43;;;;;;;13.07;100.00;100753.25;5025942;28;20230;-79
2023/09/15 02:45:45;;;;;;;18.27;3.95;;;;;;;13.04;100.00;100755.91;5046422;28;20230;-79
2023/09/15 02:48:12;;;;;;;13.00;3.10;;;;;;;12.95;100.00;100749.63;5042916;28;20292;-79
2023/09/15 02:50:43;;;;;;;22.85;4.68;;;;;;;13.00;100.00;100758.50;5048955;28;20234;-79
2023/09/15 02:53:10;;;;;;;19.23;4.10;;;;;;;12.98;100.00;100765.56;5016790;28;20242;-79
2023/09/15 02:55:37;;;;;;;16.65;3.75;;;;;;;12.94;100.00;100759.34;5031592;28;20786;-79
2023/09/15 02:58:05;;;;;;;35.47;8.77;;;;;;;12.90;100.00;100757.56;5023804;28;20235;-79
2023/09/15 03:00:32;;;;;;;22.38;4.68;;;;;;;12.96;100.00;100769.97;5026975;28;20259;-79
2023/09/15 03:02:58;;;;;;;36.85;8.90;;;;;;;12.89;100.00;100770.84;5025426;28;20234;-79
2023/09/15 03:05:25;;;;;;;20.42;4.65;;;;;;;12.89;100.00;100770.84;5037743;28;20237;-79
2023/09/15 03:07:53;;;;;;;37.08;8.70;;;;;;;12.97;100.00;100793.00;5008515;28;20605;-78
2023/09/15 03:10:20;;;;;;;27.48;5.70;;;;;;;12.83;100.00;100780.53;5017128;28;20246;-79
2023/09/15 03:12:47;;;;;;;18.23;4.00;;;;;;;12.79;100.00;100783.16;5040203;28;20799;-81
2023/09/15 03:15:13;;;;;;;13.18;2.88;;;;;;;12.82;100.00;100792.03;5039646;28;20230;-79
2023/09/15 03:17:40;;;;;;;14.00;2.95;;;;;;;12.81;100.00;100790.25;5029602;28;20313;-79
2023/09/15 03:20:15;;;;;;;30.42;6.68;;;;;;;12.73;100.00;100789.34;5024610;28;20371;-79
2023/09/15 03:22:43;;;;;;;15.32;3.60;;;;;;;12.68;100.00;100785.75;5051759;28;20230;-79
2023/09/15 03:25:10;;;;;;;11.50;2.90;;;;;;;12.61;100.00;100781.28;5038669;28;20229;-79
2023/09/15 03:27:37;;;;;;;14.13;3.50;;;;;;;12.65;100.00;100787.50;5032323;28;20235;-79
2023/09/15 03:30:04;;;;;;;19.30;5.75;;;;;;;12.59;100.00;100787.47;5022340;28;20235;-79
2023/09/15 03:32:31;;;;;;;16.98;4.50;;;;;;;12.61;100.00;100783.94;5019059;28;20231;-79
2023/09/15 03:34:58;;;;;;;19.55;4.95;;;;;;;12.61;100.00;100791.91;5017491;28;20734;-80
2023/09/15 03:37:25;;;;;;;14.20;4.10;;;;;;;12.57;100.00;100786.56;5017891;28;20239;-79
2023/09/15 03:39:52;;;;;;;15.45;4.57;;;;;;;12.62;100.00;100799.00;5025818;28;20244;-79
2023/09/15 03:42:19;;;;;;;11.32;3.05;;;;;;;12.66;100.00;100802.56;5040390;28;20673;-79
2023/09/15 03:44:46;;;;;;;10.07;3.03;;;;;;;12.70;100.00;100812.31;5036418;28;20292;-79
2023/09/15 03:47:13;;;;;;;10.75;2.88;;;;;;;12.65;100.00;100809.63;5014054;28;20265;-79
2023/09/15 03:49:40;;;;;;;12.27;3.75;;;;;;;12.57;100.00;100800.72;5022112;28;20317;-79
2023/09/15 03:52:07;;;;;;;10.93;3.22;;;;;;;12.55;100.00;100801.59;5018171;28;20392;-79
2023/09/15 03:54:34;;;;;;;14.63;4.15;;;;;;;12.52;100.00;100791.84;5034710;28;20258;-79
2023/09/15 03:57:00;;;;;;;17.73;5.15;;;;;;;12.46;100.00;100794.47;5023687;28;20234;-79
2023/09/15 03:59:27;;;;;;;10.23;3.35;;;;;;;12.41;100.00;100790.88;5040551;28;20226;-79
2023/09/15 04:01:54;;;;;;;20.25;5.78;;;;;;;12.46;100.00;100799.78;5023672;28;20238;-79
2023/09/15 04:04:21;;;;;;;11.82;3.60;;;;;;;12.30;100.00;100781.97;5034769;28;20241;-79
2023/09/15 04:06:47;;;;;;;9.90;2.85;;;;;;;12.37;100.00;100797.94;5020301;28;20262;-80
2023/09/15 04:09:14;;;;;;;14.73;4.30;;;;;;;12.32;100.00;100796.13;5039513;28;20382;-79
2023/09/15 04:11:41;;;;;;;16.15;4.63;;;;;;;12.32;100.00;100794.38;5021405;28;20238;-79
2023/09/15 04:14:08;;;;;;;16.10;4.50;;;;;;;12.25;100.00;100795.19;5028469;28;21153;-79
2023/09/15 04:16:37;;;;;;;18.42;5.22;;;;;;;12.19;100.00;100795.13;5025231;28;20235;-78
2023/09/15 04:19:04;;;;;;;18.90;5.30;;;;;;;12.20;100.00;100794.25;5033521;28;20234;-79
2023/09/15 04:21:31;;;;;;;11.63;3.25;;;;;;;12.17;100.00;100794.25;5039347;28;20226;-79
2023/09/15 04:23:58;;;;;;;15.57;4.60;;;;;;;12.14;100.00;100794.22;5029945;28;20237;-78
2023/09/15 04:26:24;;;;;;;9.98;3.05;;;;;;;12.14;100.00;100804.81;5032445;28;20581;-80
2023/09/15 04:28:51;;;;;;;16.13;4.68;;;;;;;12.23;100.00;100818.16;5040271;28;20301;-79
2023/09/15 04:31:18;;;;;;;8.07;2.35;;;;;;;12.12;100.00;100804.81;5034232;28;20254;-78
2023/09/15 04:33:45;;;;;;;11.30;3.22;;;;;;;12.20;100.00;100818.13;5029025;28;20246;-79
2023/09/15 04:36:12;;;;;;;9.52;2.63;;;;;;;12.18;100.00;100822.53;5034423;28;20234;-79
2023/09/15 04:38:39;;;;;;;10.60;2.92;;;;;;;12.18;100.00;100822.53;5044155;28;20238;-79
2023/09/15 04:41:06;;;;;;;12.98;4.25;;;;;;;12.14;100.00;100820.72;5037793;28;20241;-80
2023/09/15 04:43:32;;;;;;;12.15;3.63;;;;;;;12.18;100.00;100834.03;5038246;28;20318;-79
2023/09/15 04:45:59;;;;;;;16.00;4.72;;;;;;;12.17;100.00;100836.66;5025961;28;20248;-80
2023/09/15 04:48:26;;;;;;;11.35;3.33;;;;;;;12.06;100.00;100828.63;5043035;28;20292;-79
2023/09/15 04:50:53;;;;;;;19.38;5.28;;;;;;;12.04;100.00;100838.31;5031358;28;20234;-80
2023/09/15 04:53:20;;;;;;;9.23;3.05;;;;;;;11.97;100.00;100832.94;5039778;28;20246;-80
2023/09/15 04:55:53;;;;;;;11.95;3.85;;;;;;;11.96;100.00;100829.41;5014050;28;20249;-80
2023/09/15 04:58:20;;;;;;;13.65;4.15;;;;;;;12.04;100.00;100843.63;5053467;28;20238;-80
2023/09/15 05:00:48;;;;;;;9.55;3.15;;;;;;;11.94;100.00;100831.16;5035296;28;20222;-79
2023/09/15 05:03:15;;;;;;;18.38;5.63;;;;;;;12.02;100.00;100845.38;5028740;28;20331;-80
2023/09/15 05:05:43;;;;;;;6.65;2.28;;;;;;;12.03;100.00;100851.56;5022442;28;20671;-80
2023/09/15 05:08:10;;;;;;;8.32;2.47;;;;;;;11.90;100.00;100847.91;5023301;28;20229;-79
2023/09/15 05:10:36;;;;;;;11.43;3.72;;;;;;;11.91;100.00;100852.31;5037167;28;20237;-80
2023/09/15 05:13:05;;;;;;;30.77;8.57;;;;;;;11.85;100.00;100853.16;5030804;28;20238;-80
2023/09/15 05:15:34;;;;;;;16.60;4.63;;;;;;;11.82;100.00;100845.16;5038226;28;20295;-80
2023/09/15 05:18:01;;;;;;;17.02;5.05;;;;;;;11.76;100.00;100846.81;5025412;28;20226;-80
2023/09/15 05:20:27;;;;;;;10.02;2.97;;;;;;;11.71;100.00;100845.88;5033101;28;20233;-79
2023/09/15 05:22:54;;;;;;;16.45;5.10;;;;;;;11.74;100.00;100853.88;5042857;28;20225;-80
2023/09/15 05:25:21;;;;;;;10.80;3.28;;;;;;;11.76;100.00;100865.38;5042052;28;20245;-80
2023/09/15 05:27:48;;;;;;;8.63;2.72;;;;;;;11.78;100.00;100867.22;5029143;28;20303;-80
2023/09/15 05:30:15;;;;;;;10.23;2.92;;;;;;;11.76;100.00;100876.88;5030923;28;20238;-80
2023/09/15 05:32:42;;;;;;;17.73;3.72;;;;;;;11.78;100.00;100877.81;5044398;28;20284;-80
2023/09/15 05:35:10;;;;;;;11.43;2.95;;;;;;;11.78;100.00;100891.06;5039644;28;20238;-80
2023/09/15 05:37:37;;;;;;;18.23;4.07;;;;;;;11.83;100.00;100901.69;5042792;28;20245;-80
2023/09/15 05:40:04;;;;;;;48.63;11.88;;;;;;;11.86;100.00;100901.75;5027220;28;20265;-80
2023/09/15 05:42:31;;;;;;;27.13;5.82;;;;;;;11.83;100.00;100910.53;5042215;28;20234;-80
2023/09/15 05:44:59;;;;;;;45.90;10.95;;;;;;;11.87;100.00;100911.47;5039752;28;20231;-79
2023/09/15 05:47:25;;;;;;;21.88;4.35;;;;;;;11.93;100.00;100915.94;5022315;28;20235;-80
2023/09/15 05:49:52;;;;;;;27.30;6.30;;;;;;;11.93;100.00;100927.44;5034647;28;20240;-79
2023/09/15 05:52:19;;;;;;;18.50;3.72;;;;;;;11.97;100.00;100941.63;5022405;28;20231;-80
2023/09/15 05:54:45;;;;;;;20.63;4.15;;;;;;;12.00;100.00;100933.69;5040301;28;20243;-80
2023/09/15 05:57:12;;;;;;;18.35;3.83;;;;;;;12.01;100.00;100938.13;5041505;28;20680;-79
2023/09/15 05:59:39;;;;;;;26.77;5.68;;;;;;;11.99;100.00;100934.56;5043933;28;20228;-81
2023/09/15 06:02:07;;;;;;;49.78;11.45;;;;;;;12.03;100.00;100941.69;5032595;28;20317;-80
2023/09/15 06:04:33;;;;;;;35.88;7.22;;;;;;;12.03;100.00;100939.91;5038383;28;20234;-80
2023/09/15 06:07:00;;;;;;;45.08;10.13;;;;;;;12.09;100.00;100949.72;5024011;28;20535;-80
2023/09/15 06:09:27;;;;;;;17.60;3.55;;;;;;;12.09;100.00;100961.19;5030600;28;20226;-81
2023/09/15 06:11:54;;;;;;;62.20;14.45;;;;;;;12.14;100.00;100959.50;5028532;28;20234;-80
2023/09/15 06:14:20;;;;;;;25.15;5.22;;;;;;;12.23;100.00;100965.75;5042050;28;20237;-80
2023/09/15 06:16:47;;;;;;;23.23;3.75;;;;;;;12.34;100.00;100974.72;5039700;28;20234;-80
2023/09/15 06:19:14;;;;;;;18.73;3.92;;;;;;;12.42;100.00;100976.59;5051726;28;20238;-80
2023/09/15 06:21:41;;;;;;;17.30;3.63;;;;;;;12.43;100.00;100973.06;5030554;28;20235;-80
2023/09/15 06:24:08;;;;;;;16.65;3.53;;;;;;;12.49;100.00;100980.19;5012746;28;21306;-80
2023/09/15 06:26:37;;;;;;;24.33;5.38;;;;;;;12.59;100.00;100986.47;5017834;28;20243;-79
2023/09/15 06:29:05;;;;;;;38.38;9.45;;;;;;;12.63;100.00;100978.53;5020098;28;20234;-80
2023/09/15 06:31:32;;;;;;;18.77;3.83;;;;;;;12.74;100.00;100986.59;5041424;28;20705;-79
2023/09/15 06:33:59;;;;;;;39.30;9.43;;;;;;;12.76;100.00;100988.41;5027519;28;20284;-79
2023/09/15 06:36:26;;;;;;;29.73;6.03;;;;;;;12.79;100.00;100985.78;5041475;28;20253;-80
2023/09/15 06:38:53;;;;;;;47.60;11.40;;;;;;;12.91;100.00;100984.97;5029870;28;20246;-80
2023/09/15 06:41:20;;;;;;;17.38;3.75;;;;;;;12.99;100.00;100983.28;5013336;28;20223;-80
2023/09/15 06:43:47;;;;;;;31.88;6.00;;;;;;;13.08;100.00;100993.13;5037414;28;20252;-81
2023/09/15 06:46:18;;;;;;;21.30;4.63;;;;;;;13.13;100.00;100989.63;5018192;28;20234;-81
2023/09/15 06:48:45;;;;;;;21.17;4.65;;;;;;;13.16;100.00;100978.13;5039227;28;20233;-80
2023/09/15 06:51:13;;;;;;;27.15;5.97;;;;;;;13.28;100.00;100990.63;5031763;28;20235;-81
2023/09/15 06:53:39;;;;;;;18.77;4.30;;;;;;;13.39;100.00;101003.13;5041777;28;20250;-80
2023/09/15 06:56:06;;;;;;;48.40;11.95;;;;;;;13.40;100.00;101004.00;5022029;28;20237;-81
2023/09/15 06:58:33;;;;;;;27.75;6.05;;;;;;;13.50;100.00;101005.84;5021276;28;20234;-80
2023/09/15 07:01:08;;;;;;;24.08;5.10;;;;;;;13.61;100.00;101008.56;5018551;28;20291;-80
2023/09/15 07:03:35;;;;;;;20.23;4.25;;;;;;;13.66;100.00;101009.47;5023679;28;20313;-80
2023/09/15 07:06:02;;;;;;;77.57;12.75;;;;;;;13.70;100.00;100993.56;5042085;28;20638;-80
2023/09/15 07:08:29;;;;;;;19.83;4.38;;;;;;;13.70;100.00;100997.97;5024023;28;20235;-81
2023/09/15 07:10:55;;;;;;;84.82;14.20;;;;;;;13.87;100.00;101004.28;5025917;28;20264;-80
2023/09/15 07:13:22;;;;;;;38.72;8.45;;;;;;;13.94;100.00;100997.22;5013504;28;20247;-80
2023/09/15 07:15:50;;;;;;;24.88;4.97;;;;;;;14.06;100.00;101006.13;5030800;28;20229;-81
2023/09/15 07:18:17;;;;;;;15.23;3.35;;;;;;;14.10;100.00;100993.72;5043935;28;20237;-82
2023/09/15 07:20:44;;;;;;;19.75;4.28;;;;;;;14.18;100.00;100973.34;5035773;28;20230;-80
2023/09/15 07:23:10;;;;;;;14.88;4.20;;;;;;;14.17;100.00;100968.91;5031777;28;20300;-82
2023/09/15 07:25:37;;;;;;;16.80;3.88;;;;;;;14.20;100.00;100963.59;5045134;28;20238;-81
2023/09/15 07:28:05;;;;;;;76.50;13.88;;;;;;;14.30;100.00;100960.13;5035970;28;20225;-81
2023/09/15 07:30:32;;;;;;;13.10;2.95;;;;;;;14.36;100.00;100959.25;5027994;28;20223;-80
2023/09/15 07:33:01;;;;;;;58.58;10.32;;;;;;;14.41;100.00;100952.16;5025905;28;20230;-81
2023/09/15 07:35:28;;;;;;;14.80;3.25;;;;;;;14.52;100.00;100953.09;5039455;28;20233;-81
2023/09/15 07:37:56;;;;;;;75.15;13.10;;;;;;;14.57;100.00;100947.78;5028257;28;20228;-81
2023/09/15 07:40:22;;;;;;;16.40;3.65;;;;;;;14.66;100.00;100938.03;5024900;28;20242;-82
2023/09/15 07:42:51;;;;;;;39.75;7.05;;;;;;;14.80;100.00;100946.00;5026188;28;20281;-82
2023/09/15 07:45:18;;;;;;;15.27;3.78;;;;;;;14.82;100.00;100922.03;5029478;28;20313;-82
2023/09/15 07:47:45;;;;;;;15.50;3.83;;;;;;;14.89;100.00;100923.81;5038353;28;20222;-81
2023/09/15 07:50:13;;;;;;;15.95;3.58;;;;;;;14.89;100.00;100922.03;5041980;28;20280;-81
2023/09/15 07:52:40;;;;;;;13.75;3.03;;;;;;;15.16;100.00;100936.22;5042579;28;20349;-80
2023/09/15 07:55:07;;;;;;;44.78;7.47;;;;;;;15.21;100.00;100926.44;5036593;28;20248;-81
2023/09/15 07:57:37;;;;;;;15.88;3.50;;;;;;;15.28;100.00;100921.06;5038836;28;20231;-81
2023/09/15 08:00:07;;;;;;;73.18;12.45;;;;;;;15.39;100.00;100913.06;5029098;28;20227;-81
2023/09/15 08:02:36;;;;;;;17.88;3.85;;;;;;;15.47;100.00;100916.59;5046898;28;20708;-81
2023/09/15 08:05:03;;;;;;;54.00;9.68;;;;;;;15.70;100.00;100916.56;5040084;28;20241;-80
2023/09/15 08:07:30;;;;;;;17.73;3.80;;;;;;;15.74;100.00;100913.00;5042969;28;20321;-80
2023/09/15 08:09:58;;;;;;;33.90;8.30;;;;;;;15.81;100.00;100898.72;5035047;28;20790;-81
2023/09/15 08:12:25;;;;;;;25.05;5.95;;;;;;;15.85;100.00;100891.59;5041232;28;20257;-81
2023/09/15 08:14:52;;;;;;;36.40;9.02;;;;;;;16.06;100.00;100893.25;5043964;28;21020;-81
2023/09/15 08:17:19;;;;;;;17.30;3.97;;;;;;;16.18;100.00;100885.19;5034614;28;20237;-80
2023/09/15 08:19:59;;;;;;;42.15;10.38;;;;;;;16.17;100.00;100870.06;5023071;28;20223;-82
2023/09/15 08:22:27;;;;;;;28.98;5.90;;;;;;;16.30;100.00;100872.63;5029162;28;20222;-81
2023/09/15 08:24:54;;;;;;;42.20;10.07;;;;;;;16.36;100.00;100877.03;5037795;28;20230;-82
2023/09/15 08:27:22;;;;;;;16.92;3.55;;;;;;;16.41;100.00;100869.88;5032927;28;20238;-81
2023/09/15 08:29:49;;;;;;;19.58;4.38;;;;;;;16.64;100.00;100872.34;5033851;28;20229;-81
2023/09/15 08:32:15;;;;;;;24.75;4.95;;;;;;;16.84;100.00;100877.53;5029096;28;20246;-81
2023/09/15 08:34:42;;;;;;;28.40;5.72;;;;;;;16.86;100.00;100859.72;5024283;28;20313;-83
2023/09/15 08:37:09;;;;;;;17.00;3.50;;;;;;;16.91;100.00;100837.44;5034863;28;20234;-81
2023/09/15 08:39:36;;;;;;;24.10;4.82;;;;;;;17.18;100.00;100833.56;5042019;28;20252;-80
2023/09/15 08:42:04;;;;;;;68.75;13.45;;;;;;;17.22;100.00;100821.94;5028886;28;20234;-80
2023/09/15 08:44:32;;;;;;;17.80;3.97;;;;;;;17.26;100.00;100804.06;5017948;28;20326;-81
2023/09/15 08:47:04;;;;;;;45.70;9.93;;;;;;;17.53;100.00;100806.38;5022160;28;20229;-81
2023/09/15 08:49:31;;;;;;;21.35;4.45;;;;;;;17.66;100.00;100788.41;5020832;28;20277;-81
2023/09/15 08:51:58;;;;;;;76.95;12.55;;;;;;;17.93;100.00;100787.13;5017078;28;20227;-80
2023/09/15 08:54:25;;;;;;;28.92;6.03;;;;;;;18.02;100.00;100776.28;5043220;28;20329;-82
2023/09/15 08:56:53;;;;;;;55.65;10.93;;;;;;;18.11;100.00;100765.41;5046884;28;20232;-81
2023/09/15 08:59:20;;;;;;;23.92;4.97;;;;;;;18.28;100.00;100759.81;5047156;28;20241;-81
2023/09/15 09:01:47;;;;;;;16.95;3.45;;;;;;;18.43;100.00;100756.84;5046232;28;20226;-81
2023/09/15 09:04:14;;;;;;;26.88;5.65;;;;;;;18.48;100.00;100732.66;5043941;28;20295;-81
2023/09/15 09:06:41;;;;;;;24.48;4.82;;;;;;;18.61;100.00;100736.91;5050026;28;20230;-82
2023/09/15 09:09:09;;;;;;;23.15;5.03;;;;;;;18.58;100.00;100702.13;5051207;28;20241;-81
2023/09/15 09:11:36;;;;;;;26.75;5.63;;;;;;;18.80;100.00;100689.22;5025364;28;20234;-81
2023/09/15 09:14:11;;;;;;;74.30;12.93;;;;;;;19.10;100.00;100685.00;5020555;28;20241;-81
2023/09/15 09:16:46;;;;;;;19.23;4.03;;;;;;;19.03;100.00;100636.00;5037197;28;20265;-81
2023/09/15 09:19:14;;;;;;;20.60;4.47;;;;;;;19.24;100.00;100633.75;5044317;28;20276;-81
2023/09/15 09:21:41;;;;;;;16.20;3.25;;;;;;;19.54;100.00;100643.81;5053994;28;20237;-80
2023/09/15 09:24:09;;;;;;;29.25;6.35;;;;;;;19.73;100.00;100637.06;5015967;28;21928;-82
2023/09/15 09:26:37;;;;;;;29.02;6.05;;;;;;;20.03;100.00;100639.88;5050171;28;20227;-81
2023/09/15 09:29:04;;;;;;;43.38;10.05;;;;;;;19.90;100.00;100590.13;5026009;28;20235;-81
2023/09/15 09:31:31;;;;;;;21.52;4.35;;;;;;;19.53;100.00;100523.13;5038646;28;20238;-81
2023/09/15 09:33:58;;;;;;;39.58;9.05;;;;;;;20.06;100.00;100573.56;5042425;28;20304;-81
2023/09/15 09:36:25;;;;;;;17.25;3.53;;;;;;;20.10;100.00;100544.81;5049737;28;20256;-81
2023/09/15 09:38:52;;;;;;;38.83;8.88;;;;;;;20.41;100.00;100553.78;5045886;28;20217;-81
2023/09/15 09:41:22;;;;;;;30.17;6.00;;;;;;;20.75;100.00;100544.69;5039209;28;20241;-82
2023/09/15 09:43:49;;;;;;;19.45;4.72;;;;;;;20.96;100.00;100522.56;5025531;28;20238;-81
2023/09/15 09:46:18;;;;;;;18.75;3.80;;;;;;;21.16;100.00;100512.94;5038158;28;20231;-81
2023/09/15 09:48:47;;;;;;;22.08;4.63;;;;;;;20.96;100.00;100451.78;5024726;28;20640;-82
2023/09/15 09:51:16;;;;;;;23.00;4.63;;;;;;;21.22;100.00;100476.00;5031849;28;20612;-81
2023/09/15 09:53:43;;;;;;;19.42;4.00;;;;;;;21.37;100.00;100437.81;5038432;28;20240;-84
2023/09/15 09:56:09;;;;;;;22.95;5.00;;;;;;;21.48;100.00;100433.88;5042994;28;20246;-81
2023/09/15 09:58:38;;;;;;;22.92;4.65;;;;;;;21.11;100.00;100329.38;5049986;28;20221;-81
2023/09/15 10:01:06;;;;;;;40.40;9.35;;;;;;;21.50;100.00;100373.69;5038112;28;20237;-81
2023/09/15 10:03:34;;;;;;;26.63;5.45;;;;;;;21.86;100.00;100395.66;5048724;28;20303;-81
2023/09/15 10:06:03;;;;;;;52.60;12.00;;;;;;;22.44;100.00;100417.69;5037948;28;20249;-82
2023/09/15 10:08:31;;;;;;;23.83;5.03;;;;;;;22.53;100.00;100362.53;5046324;28;20230;-82
2023/09/15 10:10:58;;;;;;;36.38;8.70;;;;;;;22.23;100.00;100257.78;5035371;28;20243;-81
2023/09/15 10:13:26;;;;;;;23.13;4.93;;;;;;;22.59;100.00;100289.50;5030157;28;20242;-84
2023/09/15 10:15:54;;;;;;;40.35;9.27;;;;;;;22.49;100.00;100234.25;5022696;28;20238;-81
2023/09/15 10:18:22;;;;;;;18.98;3.85;;;;;;;22.34;100.00;100176.50;5040014;28;20233;-81
2023/09/15 10:20:51;;;;;;;23.50;5.38;;;;;;;23.15;100.00;100276.25;5026337;28;20261;-82
2023/09/15 10:23:18;;;;;;;21.00;4.80;;;;;;;23.08;100.00;100234.31;5026372;28;20225;-84
2023/09/15 10:25:50;;;;;;;13.52;3.22;;;;;;;23.17;100.00;100193.44;5026098;28;20233;-82
2023/09/15 10:28:17;;;;;;;19.88;4.47;;;;;;;23.27;100.00;100166.91;5031146;28;20231;-82
2023/09/15 10:31:05;;;;;;;67.82;12.57;;;;;;;23.34;100.00;100124.31;5039086;28;20230;-81
2023/09/15 10:33:33;;;;;;;17.88;4.63;;;;;;;23.49;100.00;100105.56;5031223;28;20273;-81
2023/09/15 10:36:03;;;;;;;63.33;13.13;;;;;;;23.57;100.00;100086.34;5042173;28;20224;-81
2023/09/15 10:38:32;;;;;;;17.90;4.35;;;;;;;23.74;100.00;100072.88;5041875;28;20231;-82
2023/09/15 10:41:03;;;;;;;62.92;13.18;;;;;;;23.84;100.00;100070.56;5041518;28;20228;-81
2023/09/15 10:43:31;;;;;;;16.00;3.78;;;;;;;24.49;100.00;100136.53;5029886;28;20238;-81
2023/09/15 10:46:02;;;;;;;57.88;10.48;;;;;;;23.66;100.00;99923.91;5047197;28;20222;-82
2023/09/15 10:48:36;;;;;;;29.52;5.93;;;;;;;23.86;100.00;99998.44;5040611;28;20229;-83
2023/09/15 10:51:07;;;;;;;75.22;14.05;;;;;;;24.07;100.00;99977.53;5040684;28;20225;-83
2023/09/15 10:53:45;;;;;;;25.90;5.60;;;;;;;24.27;100.00;99971.94;5043054;28;20240;-82
2023/09/15 10:56:13;;;;;;;31.77;6.75;;;;;;;24.54;100.00;99975.81;5032643;28;20590;-83
2023/09/15 10:58:41;;;;;;;24.17;5.40;;;;;;;24.40;100.00;99901.88;5049133;28;20222;-82
2023/09/15 11:01:10;;;;;;;45.08;8.27;;;;;;;24.42;100.00;99846.78;5043781;28;20245;-83
2023/09/15 11:03:41;;;;;;;17.83;4.10;;;;;;;24.83;100.00;99901.19;5044557;28;20283;-82
2023/09/15 11:06:10;;;;;;;16.60;3.63;;;;;;;24.73;100.00;99826.09;5025498;28;20241;-82
2023/09/15 11:08:38;;;;;;;13.07;2.90;;;;;;;24.37;100.00;99789.41;5030072;28;20236;-82
2023/09/15 11:11:10;;;;;;;67.47;14.80;;;;;;;24.71;100.00;99804.56;5034089;28;20230;-82
2023/09/15 11:13:39;;;;;;;15.20;3.28;;;;;;;25.29;100.00;99847.09;5034917;28;20241;-82